createdAt,value
2018-07-04T00:00:31.096Z,21.4
2018-07-04T00:01:36.017Z,21.4
2018-07-04T00:02:41.169Z,21.4
2018-07-04T00:03:46.396Z,21.3
2018-07-04T00:04:51.566Z,21.2
2018-07-04T00:05:57.028Z,21.2
2018-07-04T00:07:02.440Z,21.3
2018-07-04T00:08:07.901Z,21.3
2018-07-04T00:09:13.383Z,21.3
2018-07-04T00:10:18.675Z,21.3
2018-07-04T00:11:24.155Z,21.4
2018-07-04T00:12:29.808Z,21.3
2018-07-04T00:13:34.689Z,21.3
2018-07-04T00:14:40.149Z,21.4
2018-07-04T00:15:45.845Z,21.3
2018-07-04T00:16:51.011Z,21.3
2018-07-04T00:17:56.470Z,21.3
2018-07-04T00:19:01.756Z,21.3
2018-07-04T00:20:06.628Z,21.3
2018-07-04T00:21:12.067Z,21.3
2018-07-04T00:22:17.633Z,21.3
2018-07-04T00:23:22.797Z,21.3
2018-07-04T00:24:28.697Z,21.3
2018-07-04T00:25:33.851Z,21.3
2018-07-04T00:26:39.187Z,21.3
2018-07-04T00:27:44.875Z,21.3
2018-07-04T00:28:50.322Z,21.3
2018-07-04T00:29:55.486Z,21.3
2018-07-04T00:31:01.186Z,21.3
2018-07-04T00:32:05.800Z,21.3
2018-07-04T00:33:10.961Z,21.3
2018-07-04T00:34:16.713Z,21.3
2018-07-04T00:35:22.159Z,21.3
2018-07-04T00:36:27.456Z,21.3
2018-07-04T00:37:32.904Z,21.3
2018-07-04T00:38:38.360Z,21.3
2018-07-04T00:39:44.201Z,21.3
2018-07-04T00:40:49.363Z,21.3
2018-07-04T00:41:54.812Z,21.3
2018-07-04T00:42:59.705Z,21.3
2018-07-04T00:44:05.148Z,21.2
2018-07-04T00:45:10.044Z,21.2
2018-07-04T00:46:15.746Z,21.2
2018-07-04T00:47:21.201Z,21.2
2018-07-04T00:48:27.352Z,21.2
2018-07-04T00:49:32.792Z,21.2
2018-07-04T00:50:38.245Z,21.2
2018-07-04T00:51:44.066Z,21.2
2018-07-04T00:52:49.511Z,21.2
2018-07-04T00:53:54.679Z,21.2
2018-07-04T00:55:00.061Z,21.2
2018-07-04T00:56:04.979Z,21.2
2018-07-04T00:57:09.567Z,21.2
2018-07-04T00:58:15.107Z,21.2
2018-07-04T00:59:20.556Z,21.2
2018-07-04T01:00:26.350Z,21.2
2018-07-04T01:01:31.826Z,21.2
2018-07-04T01:02:36.425Z,21.2
2018-07-04T01:03:41.830Z,21.1
2018-07-04T01:04:47.016Z,21
2018-07-04T01:05:51.901Z,21
2018-07-04T01:06:57.701Z,21
2018-07-04T01:08:03.147Z,21
2018-07-04T01:09:08.327Z,21
2018-07-04T01:10:14.036Z,21
2018-07-04T01:11:19.480Z,21
2018-07-04T01:13:45.292Z,21.1
2018-07-04T01:14:50.767Z,21.1
2018-07-04T01:15:56.457Z,21.1
2018-07-04T01:17:01.606Z,21.2
2018-07-04T01:18:07.059Z,21.2
2018-07-04T01:19:12.175Z,21.2
2018-07-04T01:20:17.353Z,21.2
2018-07-04T01:21:22.527Z,21.2
2018-07-04T01:22:43.023Z,21.3
2018-07-04T01:23:48.465Z,21.3
2018-07-04T01:24:54.182Z,21.3
2018-07-04T01:25:59.378Z,21.3
2018-07-04T01:27:04.235Z,21.3
2018-07-04T01:28:09.756Z,21.3
2018-07-04T01:29:14.647Z,21.3
2018-07-04T01:30:20.093Z,21.3
2018-07-04T01:31:40.445Z,21.3
2018-07-04T01:32:45.314Z,21.2
2018-07-04T01:33:51.167Z,21.3
2018-07-04T01:34:56.070Z,21.3
2018-07-04T01:36:01.519Z,21.3
2018-07-04T01:37:06.746Z,21.3
2018-07-04T01:38:12.193Z,21.3
2018-07-04T01:39:17.343Z,21.3
2018-07-04T01:40:22.861Z,21.3
2018-07-04T01:41:27.741Z,21.3
2018-07-04T01:42:33.163Z,21.3
2018-07-04T01:43:38.030Z,21.3
2018-07-04T01:44:43.474Z,21.3
2018-07-04T01:45:49.172Z,21.3
2018-07-04T01:46:54.605Z,21.3
2018-07-04T01:48:00.057Z,21.4
2018-07-04T01:49:05.904Z,21.4
2018-07-04T01:50:11.354Z,21.4
2018-07-04T01:51:16.790Z,21.4
2018-07-04T01:52:21.948Z,21.4
2018-07-04T01:53:27.404Z,21.4
2018-07-04T01:54:33.128Z,21.4
2018-07-04T01:55:37.989Z,21.4
2018-07-04T01:56:43.200Z,21.4
2018-07-04T01:57:49.076Z,21.4
2018-07-04T01:58:54.529Z,21.4
2018-07-04T01:59:59.969Z,21.4
2018-07-04T02:01:05.401Z,21.4
2018-07-04T02:02:10.833Z,21.4
2018-07-04T02:03:15.732Z,21.4
2018-07-04T02:04:21.427Z,21.4
2018-07-04T02:05:26.508Z,21.4
2018-07-04T02:06:31.633Z,21.4
2018-07-04T02:07:37.073Z,21.4
2018-07-04T02:08:41.948Z,21.4
2018-07-04T02:09:47.996Z,21.4
2018-07-04T02:10:53.452Z,21.4
2018-07-04T02:11:58.895Z,21.4
2018-07-04T02:13:04.400Z,21.4
2018-07-04T02:14:09.583Z,21.4
2018-07-04T02:15:14.753Z,21.4
2018-07-04T02:16:20.445Z,21.4
2018-07-04T02:17:25.614Z,21.5
2018-07-04T02:18:31.410Z,21.5
2018-07-04T02:19:36.563Z,21.5
2018-07-04T02:20:41.733Z,21.5
2018-07-04T02:21:47.154Z,21.5
2018-07-04T02:22:52.326Z,21.5
2018-07-04T02:23:57.201Z,21.5
2018-07-04T02:25:02.620Z,21.5
2018-07-04T02:26:07.796Z,21.5
2018-07-04T02:27:12.975Z,21.5
2018-07-04T02:28:18.664Z,21.5
2018-07-04T02:29:23.838Z,21.5
2018-07-04T02:30:28.864Z,21.5
2018-07-04T02:31:34.042Z,21.5
2018-07-04T02:32:38.930Z,21.5
2018-07-04T02:33:44.630Z,21.5
2018-07-04T02:34:50.071Z,21.5
2018-07-04T02:35:55.251Z,21.5
2018-07-04T02:37:01.101Z,21.5
2018-07-04T02:38:06.255Z,21.5
2018-07-04T02:39:11.448Z,21.5
2018-07-04T02:40:16.912Z,21.5
2018-07-04T02:41:21.800Z,21.5
2018-07-04T02:42:27.590Z,21.5
2018-07-04T02:43:32.763Z,21.5
2018-07-04T02:44:38.198Z,21.5
2018-07-04T02:45:43.623Z,21.5
2018-07-04T02:46:49.066Z,21.5
2018-07-04T02:47:54.507Z,21.5
2018-07-04T02:49:00.377Z,21.5
2018-07-04T02:50:04.699Z,21.5
2018-07-04T02:51:09.860Z,21.5
2018-07-04T02:52:15.270Z,21.5
2018-07-04T02:53:20.461Z,21.5
2018-07-04T02:54:26.250Z,21.5
2018-07-04T02:55:31.429Z,21.5
2018-07-04T02:56:36.338Z,21.5
2018-07-04T02:57:42.042Z,21.5
2018-07-04T02:58:47.219Z,21.5
2018-07-04T02:59:52.101Z,21.5
2018-07-04T03:00:57.243Z,21.5
2018-07-04T03:02:02.103Z,21.5
2018-07-04T03:03:06.697Z,21.5
2018-07-04T03:04:12.116Z,21.5
2018-07-04T03:05:17.330Z,21.5
2018-07-04T03:06:22.778Z,21.5
2018-07-04T03:07:43.162Z,21.5
2018-07-04T03:08:48.612Z,21.5
2018-07-04T03:09:53.881Z,21.4
2018-07-04T03:10:58.753Z,21.4
2018-07-04T03:12:03.919Z,21.5
2018-07-04T03:13:09.337Z,21.4
2018-07-04T03:14:14.771Z,21.5
2018-07-04T03:15:20.214Z,21.4
2018-07-04T03:16:40.369Z,21.4
2018-07-04T03:17:45.530Z,21.4
2018-07-04T03:18:51.273Z,21.4
2018-07-04T03:19:56.436Z,21.4
2018-07-04T03:21:01.896Z,21.4
2018-07-04T03:22:07.018Z,21.4
2018-07-04T03:23:12.200Z,21.4
2018-07-04T03:24:17.646Z,21.4
2018-07-04T03:25:23.065Z,21.4
2018-07-04T03:26:28.233Z,21.4
2018-07-04T03:27:33.523Z,21.4
2018-07-04T03:28:38.686Z,21.4
2018-07-04T03:29:43.284Z,21.4
2018-07-04T03:30:49.084Z,21.4
2018-07-04T03:31:54.557Z,21.4
2018-07-04T03:33:00.043Z,21.4
2018-07-04T03:34:05.672Z,21.4
2018-07-04T03:35:10.844Z,21.4
2018-07-04T03:36:16.004Z,21.4
2018-07-04T03:37:21.697Z,21.4
2018-07-04T03:38:26.576Z,21.4
2018-07-04T03:39:32.177Z,21.4
2018-07-04T03:40:37.361Z,21.4
2018-07-04T03:41:42.809Z,21.4
2018-07-04T03:42:48.366Z,21.4
2018-07-04T03:43:53.829Z,21.4
2018-07-04T03:44:59.268Z,21.4
2018-07-04T03:46:04.669Z,21.4
2018-07-04T03:47:09.863Z,21.4
2018-07-04T03:48:14.725Z,21.4
2018-07-04T03:49:20.160Z,21.4
2018-07-04T03:50:25.043Z,21.4
2018-07-04T03:51:30.847Z,21.4
2018-07-04T03:52:36.199Z,21.4
2018-07-04T03:53:41.642Z,21.4
2018-07-04T03:54:47.095Z,21.4
2018-07-04T03:55:52.542Z,21.4
2018-07-04T03:56:57.992Z,21.4
2018-07-04T03:58:03.861Z,21.4
2018-07-04T03:59:09.467Z,21.4
2018-07-04T04:00:14.939Z,21.4
2018-07-04T04:01:20.725Z,21.4
2018-07-04T04:02:25.878Z,21.4
2018-07-04T04:03:31.439Z,21.4
2018-07-04T04:04:36.599Z,21.4
2018-07-04T04:05:41.763Z,21.4
2018-07-04T04:06:47.439Z,21.4
2018-07-04T04:07:52.884Z,21.4
2018-07-04T04:08:57.769Z,21.4
2018-07-04T04:10:02.616Z,21.4
2018-07-04T04:11:07.807Z,21.4
2018-07-04T04:12:12.707Z,21.4
2018-07-04T04:13:18.409Z,21.4
2018-07-04T04:14:23.865Z,21.4
2018-07-04T04:15:29.115Z,21.4
2018-07-04T04:16:34.335Z,21.4
2018-07-04T04:17:39.502Z,21.4
2018-07-04T04:18:45.206Z,21.4
2018-07-04T04:19:50.665Z,21.4
2018-07-04T04:20:56.149Z,21.4
2018-07-04T04:22:01.527Z,21.4
2018-07-04T04:23:06.696Z,21.4
2018-07-04T04:24:12.168Z,21.4
2018-07-04T04:25:17.731Z,21.4
2018-07-04T04:26:23.196Z,21.4
2018-07-04T04:27:29.191Z,21.4
2018-07-04T04:28:34.672Z,21.4
2018-07-04T04:29:39.864Z,21.4
2018-07-04T04:30:45.811Z,21.4
2018-07-04T04:31:51.259Z,21.4
2018-07-04T04:32:56.725Z,21.4
2018-07-04T04:34:01.853Z,21.4
2018-07-04T04:35:06.453Z,21.4
2018-07-04T04:36:11.602Z,21.4
2018-07-04T04:37:17.146Z,21.4
2018-07-04T04:38:22.585Z,21.4
2018-07-04T04:39:27.733Z,21.4
2018-07-04T04:40:32.637Z,21.4
2018-07-04T04:41:37.810Z,21.4
2018-07-04T04:42:43.215Z,21.4
2018-07-04T04:43:48.663Z,21.4
2018-07-04T04:44:53.845Z,21.4
2018-07-04T04:45:59.564Z,21.4
2018-07-04T04:47:04.436Z,21.5
2018-07-04T04:48:09.333Z,21.5
2018-07-04T04:49:14.889Z,21.4
2018-07-04T04:50:20.380Z,21.5
2018-07-04T04:51:25.945Z,21.5
2018-07-04T04:52:30.865Z,21.4
2018-07-04T04:53:36.305Z,21.4
2018-07-04T04:54:42.061Z,21.4
2018-07-04T04:55:47.323Z,21.4
2018-07-04T04:56:52.779Z,21.5
2018-07-04T04:57:58.571Z,21.5
2018-07-04T04:59:03.726Z,21.5
2018-07-04T05:00:09.184Z,21.5
2018-07-04T05:01:14.881Z,21.5
2018-07-04T05:02:20.038Z,21.5
2018-07-04T05:03:26.146Z,21.5
2018-07-04T05:04:31.586Z,21.5
2018-07-04T05:05:36.751Z,21.5
2018-07-04T05:06:42.594Z,21.5
2018-07-04T05:07:47.563Z,21.5
2018-07-04T05:08:52.807Z,21.5
2018-07-04T05:09:58.606Z,21.5
2018-07-04T05:11:03.194Z,21.5
2018-07-04T05:12:08.084Z,21.5
2018-07-04T05:13:13.793Z,21.5
2018-07-04T05:14:19.235Z,21.5
2018-07-04T05:15:24.682Z,21.5
2018-07-04T05:16:45.033Z,21.5
2018-07-04T05:17:50.221Z,21.5
2018-07-04T05:18:55.906Z,21.5
2018-07-04T05:20:01.350Z,21.5
2018-07-04T05:21:05.666Z,21.5
2018-07-04T05:22:11.468Z,21.5
2018-07-04T05:23:16.356Z,21.5
2018-07-04T05:24:21.799Z,21.5
2018-07-04T05:25:27.749Z,21.5
2018-07-04T05:26:32.943Z,21.5
2018-07-04T05:27:37.931Z,21.5
2018-07-04T05:28:43.373Z,21.5
2018-07-04T05:29:48.813Z,21.5
2018-07-04T05:30:54.708Z,21.5
2018-07-04T05:31:59.907Z,21.5
2018-07-04T05:33:05.349Z,21.5
2018-07-04T05:34:10.777Z,21.5
2018-07-04T05:35:16.256Z,21.5
2018-07-04T05:36:21.752Z,21.5
2018-07-04T05:37:28.980Z,21.5
2018-07-04T05:38:34.143Z,21.5
2018-07-04T05:39:39.929Z,21.5
2018-07-04T05:40:45.391Z,21.6
2018-07-04T05:41:50.901Z,21.5
2018-07-04T05:42:56.745Z,21.6
2018-07-04T05:44:02.065Z,21.6
2018-07-04T05:45:06.392Z,21.6
2018-07-04T05:46:11.820Z,21.6
2018-07-04T05:47:16.988Z,21.6
2018-07-04T05:48:22.438Z,21.6
2018-07-04T05:49:42.904Z,21.6
2018-07-04T05:50:48.049Z,21.6
2018-07-04T05:51:53.890Z,21.6
2018-07-04T05:52:59.058Z,21.6
2018-07-04T05:54:04.416Z,21.6
2018-07-04T05:55:09.994Z,21.6
2018-07-04T05:56:15.485Z,21.6
2018-07-04T05:57:20.691Z,21.6
2018-07-04T05:58:26.586Z,21.6
2018-07-04T05:59:32.030Z,21.6
2018-07-04T06:00:37.719Z,21.6
2018-07-04T06:01:43.176Z,21.6
2018-07-04T06:02:48.349Z,21.6
2018-07-04T06:03:54.235Z,21.6
2018-07-04T06:04:59.702Z,21.6
2018-07-04T06:06:04.577Z,21.6
2018-07-04T06:07:09.807Z,21.6
2018-07-04T06:08:15.252Z,21.6
2018-07-04T06:09:20.434Z,21.6
2018-07-04T06:10:26.005Z,21.7
2018-07-04T06:11:31.220Z,21.6
2018-07-04T06:12:37.140Z,21.6
2018-07-04T06:13:42.574Z,21.6
2018-07-04T06:14:47.755Z,21.7
2018-07-04T06:15:53.459Z,21.7
2018-07-04T06:16:58.617Z,21.7
2018-07-04T06:18:04.062Z,21.7
2018-07-04T06:19:09.513Z,21.7
2018-07-04T06:20:14.680Z,21.7
2018-07-04T06:21:20.121Z,21.7
2018-07-04T06:22:25.942Z,21.7
2018-07-04T06:23:30.838Z,21.7
2018-07-04T06:24:36.597Z,21.7
2018-07-04T06:25:41.494Z,21.7
2018-07-04T06:26:46.951Z,21.7
2018-07-04T06:27:52.356Z,21.7
2018-07-04T06:28:57.530Z,21.7
2018-07-04T06:30:02.125Z,21.7
2018-07-04T06:31:06.958Z,21.7
2018-07-04T06:32:12.411Z,21.7
2018-07-04T06:33:17.866Z,21.7
2018-07-04T06:34:23.391Z,21.7
2018-07-04T06:35:28.013Z,21.7
2018-07-04T06:36:33.667Z,21.7
2018-07-04T06:37:38.271Z,21.7
2018-07-04T06:38:43.710Z,21.7
2018-07-04T06:39:49.410Z,21.7
2018-07-04T06:40:54.848Z,21.7
2018-07-04T06:42:00.009Z,21.7
2018-07-04T06:43:05.166Z,21.7
2018-07-04T06:44:10.617Z,21.7
2018-07-04T06:45:15.775Z,21.7
2018-07-04T06:46:21.193Z,21.7
2018-07-04T06:47:26.636Z,21.7
2018-07-04T06:48:31.897Z,21.7
2018-07-04T06:49:37.053Z,21.7
2018-07-04T06:50:42.417Z,21.7
2018-07-04T06:51:47.286Z,21.7
2018-07-04T06:52:52.747Z,21.7
2018-07-04T06:53:57.639Z,21.7
2018-07-04T06:55:02.772Z,21.7
2018-07-04T06:56:07.649Z,21.7
2018-07-04T06:57:13.087Z,21.7
2018-07-04T06:58:19.272Z,21.8
2018-07-04T06:59:24.443Z,21.8
2018-07-04T07:00:29.308Z,21.8
2018-07-04T07:01:34.769Z,21.8
2018-07-04T07:02:39.933Z,21.8
2018-07-04T07:03:45.353Z,21.8
2018-07-04T07:04:50.525Z,21.8
2018-07-04T07:05:55.707Z,21.8
2018-07-04T07:07:01.116Z,21.8
2018-07-04T07:08:06.337Z,21.8
2018-07-04T07:09:11.278Z,21.8
2018-07-04T07:10:16.760Z,21.8
2018-07-04T07:11:21.629Z,21.8
2018-07-04T07:12:27.306Z,21.8
2018-07-04T07:13:32.752Z,21.8
2018-07-04T07:14:37.642Z,21.8
2018-07-04T07:15:43.349Z,21.8
2018-07-04T07:16:48.511Z,21.8
2018-07-04T07:17:53.949Z,21.8
2018-07-04T07:18:59.392Z,21.8
2018-07-04T07:20:04.541Z,21.8
2018-07-04T07:21:09.752Z,21.8
2018-07-04T07:22:15.460Z,21.8
2018-07-04T07:23:20.623Z,21.8
2018-07-04T07:24:26.433Z,21.8
2018-07-04T07:25:31.490Z,21.8
2018-07-04T07:26:36.655Z,21.8
2018-07-04T07:27:42.225Z,21.9
2018-07-04T07:28:47.753Z,21.9
2018-07-04T07:29:53.206Z,21.9
2018-07-04T07:30:59.308Z,21.9
2018-07-04T07:32:04.792Z,21.9
2018-07-04T07:33:10.342Z,21.9
2018-07-04T07:34:15.762Z,21.9
2018-07-04T07:35:21.785Z,21.9
2018-07-04T07:36:27.637Z,21.9
2018-07-04T07:37:33.112Z,21.9
2018-07-04T07:38:38.433Z,21.9
2018-07-04T07:39:44.433Z,21.9
2018-07-04T07:40:49.598Z,21.9
2018-07-04T07:41:55.073Z,21.9
2018-07-04T07:43:00.353Z,21.9
2018-07-04T07:44:05.238Z,21.9
2018-07-04T07:45:10.417Z,21.9
2018-07-04T07:46:15.968Z,21.9
2018-07-04T07:47:21.140Z,21.9
2018-07-04T07:48:26.858Z,21.9
2018-07-04T07:49:32.019Z,21.9
2018-07-04T07:50:37.189Z,21.9
2018-07-04T07:51:42.035Z,21.9
2018-07-04T07:52:47.189Z,21.9
2018-07-04T07:53:52.624Z,21.9
2018-07-04T07:54:58.391Z,21.9
2018-07-04T07:56:03.813Z,21.9
2018-07-04T07:57:08.968Z,21.9
2018-07-04T07:58:14.783Z,21.9
2018-07-04T07:59:20.235Z,21.9
2018-07-04T08:00:26.091Z,21.9
2018-07-04T08:01:31.232Z,21.9
2018-07-04T08:02:36.406Z,21.9
2018-07-04T08:03:41.301Z,22
2018-07-04T08:04:46.485Z,22
2018-07-04T08:05:51.163Z,22
2018-07-04T08:06:56.940Z,22
2018-07-04T08:08:02.116Z,22
2018-07-04T08:09:06.998Z,22
2018-07-04T08:10:12.703Z,22
2018-07-04T08:11:18.162Z,22.1
2018-07-04T08:12:23.598Z,22
2018-07-04T08:13:44.170Z,22.1
2018-07-04T08:14:49.622Z,22.1
2018-07-04T08:15:55.310Z,22.1
2018-07-04T08:17:00.762Z,22.1
2018-07-04T08:18:05.353Z,22.1
2018-07-04T08:19:10.054Z,22.1
2018-07-04T08:20:15.210Z,22.2
2018-07-04T08:21:20.379Z,22.2
2018-07-04T08:22:26.340Z,22.2
2018-07-04T08:23:31.208Z,22.2
2018-07-04T08:24:36.155Z,22.2
2018-07-04T08:25:41.800Z,22.2
2018-07-04T08:26:46.975Z,22.2
2018-07-04T08:27:52.674Z,22.2
2018-07-04T08:28:57.862Z,22.3
2018-07-04T08:30:03.651Z,22.3
2018-07-04T08:31:09.031Z,22.3
2018-07-04T08:32:13.630Z,22.3
2018-07-04T08:33:18.791Z,22.3
2018-07-04T08:34:24.501Z,22.3
2018-07-04T08:35:29.399Z,22.3
2018-07-04T08:36:35.088Z,22.3
2018-07-04T08:37:40.752Z,22.3
2018-07-04T08:38:46.222Z,22.4
2018-07-04T08:39:51.747Z,22.4
2018-07-04T08:40:56.348Z,22.4
2018-07-04T08:42:01.505Z,22.4
2018-07-04T08:43:06.076Z,22.4
2018-07-04T08:44:11.242Z,22.4
2018-07-04T08:45:16.699Z,22.4
2018-07-04T08:46:22.099Z,22.4
2018-07-04T08:47:26.702Z,22.4
2018-07-04T08:48:32.501Z,22.4
2018-07-04T08:49:37.595Z,22.4
2018-07-04T08:50:42.814Z,22.4
2018-07-04T08:51:49.155Z,22.4
2018-07-04T08:52:54.685Z,22.4
2018-07-04T08:54:00.593Z,22.4
2018-07-04T08:55:05.745Z,22.4
2018-07-04T08:56:10.341Z,22.5
2018-07-04T08:57:15.790Z,22.5
2018-07-04T08:58:21.434Z,22.5
2018-07-04T08:59:27.840Z,22.5
2018-07-04T09:00:32.993Z,22.5
2018-07-04T09:01:37.784Z,22.5
2018-07-04T09:02:42.654Z,22.5
2018-07-04T09:03:48.360Z,22.5
2018-07-04T09:04:53.801Z,22.6
2018-07-04T09:05:58.998Z,22.6
2018-07-04T09:07:04.710Z,22.6
2018-07-04T09:08:09.871Z,22.6
2018-07-04T09:09:15.315Z,22.6
2018-07-04T09:10:21.510Z,22.6
2018-07-04T09:11:26.703Z,22.6
2018-07-04T09:12:32.290Z,22.6
2018-07-04T09:13:37.461Z,22.6
2018-07-04T09:14:42.633Z,22.6
2018-07-04T09:15:48.354Z,22.6
2018-07-04T09:16:53.796Z,22.6
2018-07-04T09:17:59.442Z,22.6
2018-07-04T09:19:04.754Z,22.6
2018-07-04T09:20:10.207Z,22.6
2018-07-04T09:21:15.071Z,22.6
2018-07-04T09:22:20.589Z,22.7
2018-07-04T09:23:25.208Z,22.7
2018-07-04T09:24:31.020Z,22.7
2018-07-04T09:25:36.598Z,22.7
2018-07-04T09:26:41.777Z,22.7
2018-07-04T09:27:47.556Z,22.7
2018-07-04T09:28:52.729Z,22.7
2018-07-04T09:29:57.909Z,22.7
2018-07-04T09:31:03.858Z,22.7
2018-07-04T09:32:08.672Z,22.7
2018-07-04T09:33:13.863Z,22.7
2018-07-04T09:34:19.206Z,22.7
2018-07-04T09:35:24.864Z,22.7
2018-07-04T09:36:30.860Z,22.7
2018-07-04T09:37:35.767Z,22.8
2018-07-04T09:38:41.112Z,22.8
2018-07-04T09:39:46.401Z,22.8
2018-07-04T09:40:51.841Z,22.8
2018-07-04T09:41:57.449Z,22.8
2018-07-04T09:43:02.339Z,22.8
2018-07-04T09:44:07.496Z,22.8
2018-07-04T09:45:12.651Z,22.8
2018-07-04T09:46:18.350Z,22.8
2018-07-04T09:47:23.831Z,22.8
2018-07-04T09:48:29.250Z,22.8
2018-07-04T09:49:34.719Z,22.8
2018-07-04T09:50:40.394Z,22.8
2018-07-04T09:51:45.688Z,22.8
2018-07-04T09:52:50.544Z,22.8
2018-07-04T09:53:55.705Z,22.8
2018-07-04T09:55:00.944Z,22.8
2018-07-04T09:56:05.282Z,22.9
2018-07-04T09:57:10.469Z,22.9
2018-07-04T09:58:15.894Z,22.9
2018-07-04T09:59:21.059Z,22.9
2018-07-04T10:00:26.958Z,22.9
2018-07-04T10:01:32.429Z,22.9
2018-07-04T10:02:37.328Z,22.9
2018-07-04T10:03:42.484Z,22.9
2018-07-04T10:04:48.159Z,22.9
2018-07-04T10:05:53.607Z,22.9
2018-07-04T10:06:59.298Z,22.9
2018-07-04T10:08:04.473Z,22.9
2018-07-04T10:09:09.952Z,22.9
2018-07-04T10:10:15.654Z,22.9
2018-07-04T10:11:20.809Z,22.9
2018-07-04T10:12:26.220Z,23
2018-07-04T10:13:31.376Z,23
2018-07-04T10:14:35.976Z,23
2018-07-04T10:15:41.726Z,23
2018-07-04T10:16:46.615Z,23
2018-07-04T10:17:52.069Z,23
2018-07-04T10:18:57.871Z,23
2018-07-04T10:20:03.319Z,23
2018-07-04T10:21:08.765Z,23
2018-07-04T10:22:14.180Z,23
2018-07-04T10:23:18.497Z,23
2018-07-04T10:24:23.653Z,23
2018-07-04T10:25:43.900Z,23
2018-07-04T10:26:49.068Z,23
2018-07-04T10:27:54.782Z,23
2018-07-04T10:28:59.677Z,23
2018-07-04T10:30:04.868Z,23
2018-07-04T10:31:10.286Z,23
2018-07-04T10:32:15.451Z,23
2018-07-04T10:33:20.656Z,23
2018-07-04T10:34:26.675Z,23
2018-07-04T10:35:31.882Z,23
2018-07-04T10:36:37.161Z,23.1
2018-07-04T10:37:42.080Z,23
2018-07-04T10:38:47.579Z,23.1
2018-07-04T10:39:53.031Z,23
2018-07-04T10:40:58.474Z,23.1
2018-07-04T10:42:03.970Z,23.1
2018-07-04T10:43:09.321Z,23.1
2018-07-04T10:44:13.921Z,23.1
2018-07-04T10:45:18.823Z,23.1
2018-07-04T10:46:24.527Z,23.1
2018-07-04T10:47:29.709Z,23.1
2018-07-04T10:48:35.673Z,23.1
2018-07-04T10:49:40.855Z,23.1
2018-07-04T10:50:46.054Z,23.2
2018-07-04T10:51:51.761Z,23.1
2018-07-04T10:52:57.240Z,23.1
2018-07-04T10:54:02.407Z,23.1
2018-07-04T10:55:07.569Z,23.2
2018-07-04T10:56:13.015Z,23.1
2018-07-04T10:57:18.357Z,23.2
2018-07-04T10:58:24.204Z,23.2
2018-07-04T10:59:29.820Z,23.2
2018-07-04T11:00:35.535Z,23.2
2018-07-04T11:01:41.024Z,23.2
2018-07-04T11:02:46.185Z,23.2
2018-07-04T11:03:51.693Z,23.2
2018-07-04T11:04:56.855Z,23.2
2018-07-04T11:06:02.341Z,23.2
2018-07-04T11:07:07.008Z,23.2
2018-07-04T11:08:12.455Z,23.2
2018-07-04T11:09:17.608Z,23.2
2018-07-04T11:10:22.842Z,23.2
2018-07-04T11:11:28.105Z,23.2
2018-07-04T11:12:33.353Z,23.2
2018-07-04T11:13:39.199Z,23.2
2018-07-04T11:14:44.377Z,23.3
2018-07-04T11:15:50.231Z,23.2
2018-07-04T11:16:55.808Z,23.3
2018-07-04T11:18:01.549Z,23.3
2018-07-04T11:19:06.122Z,23.3
2018-07-04T11:20:10.998Z,23.4
2018-07-04T11:21:16.488Z,23.4
2018-07-04T11:22:21.789Z,23.4
2018-07-04T11:23:27.253Z,23.4
2018-07-04T11:24:33.776Z,23.4
2018-07-04T11:25:38.914Z,23.4
2018-07-04T11:26:43.795Z,23.4
2018-07-04T11:27:49.487Z,23.4
2018-07-04T11:28:54.774Z,23.4
2018-07-04T11:29:59.955Z,23.5
2018-07-04T11:31:05.387Z,23.4
2018-07-04T11:32:10.279Z,23.4
2018-07-04T11:33:15.443Z,23.4
2018-07-04T11:34:21.148Z,23.5
2018-07-04T11:35:26.640Z,23.5
2018-07-04T11:36:31.588Z,23.5
2018-07-04T11:37:36.812Z,23.5
2018-07-04T11:38:41.732Z,23.5
2018-07-04T11:39:47.131Z,23.5
2018-07-04T11:40:52.091Z,23.5
2018-07-04T11:41:57.563Z,23.5
2018-07-04T11:43:03.369Z,23.6
2018-07-04T11:44:09.071Z,23.6
2018-07-04T11:45:14.226Z,23.6
2018-07-04T11:46:20.018Z,23.6
2018-07-04T11:47:24.906Z,23.6
2018-07-04T11:48:30.692Z,23.6
2018-07-04T11:49:35.867Z,23.6
2018-07-04T11:50:40.855Z,23.6
2018-07-04T11:51:46.545Z,23.6
2018-07-04T11:52:51.433Z,23.6
2018-07-04T11:53:56.653Z,23.6
2018-07-04T11:55:02.173Z,23.6
2018-07-04T11:56:06.775Z,23.7
2018-07-04T11:57:12.246Z,23.6
2018-07-04T11:58:17.666Z,23.6
2018-07-04T11:59:22.824Z,23.6
2018-07-04T12:00:27.723Z,23.7
2018-07-04T12:01:32.904Z,23.7
2018-07-04T12:02:38.079Z,23.7
2018-07-04T12:03:43.208Z,23.7
2018-07-04T12:04:48.661Z,23.7
2018-07-04T12:05:54.112Z,23.7
2018-07-04T12:06:59.820Z,23.7
2018-07-04T12:08:04.699Z,23.7
2018-07-04T12:09:09.861Z,23.7
2018-07-04T12:10:15.872Z,23.7
2018-07-04T12:11:21.039Z,23.7
2018-07-04T12:12:26.611Z,23.8
2018-07-04T12:13:31.782Z,23.8
2018-07-04T12:14:36.680Z,23.8
2018-07-04T12:15:42.102Z,23.8
2018-07-04T12:16:47.631Z,23.8
2018-07-04T12:17:52.803Z,23.8
2018-07-04T12:18:58.241Z,23.8
2018-07-04T12:20:03.436Z,23.8
2018-07-04T12:21:08.354Z,23.8
2018-07-04T12:22:13.515Z,23.8
2018-07-04T12:23:18.674Z,23.8
2018-07-04T12:24:24.114Z,23.8
2018-07-04T12:25:29.458Z,23.8
2018-07-04T12:26:34.982Z,23.8
2018-07-04T12:27:41.469Z,23.9
2018-07-04T12:28:46.252Z,23.9
2018-07-04T12:29:51.437Z,23.8
2018-07-04T12:30:57.151Z,23.9
2018-07-04T12:32:02.319Z,23.8
2018-07-04T12:33:07.685Z,23.9
2018-07-04T12:34:13.635Z,23.9
2018-07-04T12:35:18.807Z,23.9
2018-07-04T12:36:24.008Z,23.9
2018-07-04T12:37:44.365Z,23.8
2018-07-04T12:38:49.544Z,23.9
2018-07-04T12:39:54.785Z,23.9
2018-07-04T12:40:59.943Z,23.9
2018-07-04T12:42:05.023Z,23.8
2018-07-04T12:43:10.430Z,23.8
2018-07-04T12:44:15.872Z,23.8
2018-07-04T12:45:21.316Z,23.8
2018-07-04T12:46:27.082Z,23.8
2018-07-04T12:47:32.241Z,23.8
2018-07-04T12:48:37.370Z,23.8
2018-07-04T12:49:43.160Z,23.8
2018-07-04T12:50:47.774Z,23.8
2018-07-04T12:51:53.561Z,23.8
2018-07-04T12:52:58.143Z,23.8
2018-07-04T12:54:03.105Z,23.8
2018-07-04T12:55:09.625Z,23.8
2018-07-04T12:56:14.790Z,23.8
2018-07-04T12:57:19.941Z,23.8
2018-07-04T12:58:26.104Z,23.8
2018-07-04T12:59:31.331Z,23.8
2018-07-04T13:00:37.616Z,23.8
2018-07-04T13:01:43.149Z,23.8
2018-07-04T13:02:48.328Z,23.8
2018-07-04T13:03:53.606Z,23.8
2018-07-04T13:04:59.040Z,23.9
2018-07-04T13:06:04.209Z,23.8
2018-07-04T13:07:09.370Z,23.8
2018-07-04T13:08:14.823Z,23.8
2018-07-04T13:09:20.000Z,23.9
2018-07-04T13:10:26.219Z,23.9
2018-07-04T13:11:31.325Z,23.9
2018-07-04T13:12:36.748Z,23.9
2018-07-04T13:13:42.205Z,23.9
2018-07-04T13:14:47.868Z,23.9
2018-07-04T13:15:53.679Z,23.9
2018-07-04T13:16:58.564Z,23.9
2018-07-04T13:18:04.013Z,23.9
2018-07-04T13:19:09.749Z,23.9
2018-07-04T13:20:15.007Z,23.9
2018-07-04T13:21:20.467Z,23.9
2018-07-04T13:22:26.422Z,23.9
2018-07-04T13:23:31.326Z,23.9
2018-07-04T13:24:36.773Z,23.9
2018-07-04T13:25:42.430Z,23.9
2018-07-04T13:26:47.631Z,23.9
2018-07-04T13:27:53.093Z,23.9
2018-07-04T13:28:57.961Z,23.9
2018-07-04T13:30:03.406Z,23.9
2018-07-04T13:31:07.710Z,23.9
2018-07-04T13:32:13.190Z,23.9
2018-07-04T13:33:19.464Z,23.9
2018-07-04T13:34:25.568Z,23.9
2018-07-04T13:35:30.735Z,23.9
2018-07-04T13:36:36.531Z,23.9
2018-07-04T13:37:41.699Z,23.9
2018-07-04T13:38:47.139Z,23.9
2018-07-04T13:39:52.841Z,23.9
2018-07-04T13:40:58.278Z,24
2018-07-04T13:42:03.450Z,24
2018-07-04T13:43:08.419Z,24
2018-07-04T13:44:13.655Z,24
2018-07-04T13:45:19.631Z,24
2018-07-04T13:46:25.584Z,24
2018-07-04T13:47:30.739Z,24
2018-07-04T13:48:36.153Z,24
2018-07-04T13:49:41.320Z,23.9
2018-07-04T13:50:46.603Z,24
2018-07-04T13:51:51.759Z,24
2018-07-04T13:52:56.968Z,24
2018-07-04T13:54:01.834Z,23.9
2018-07-04T13:55:06.977Z,24
2018-07-04T13:56:12.175Z,24
2018-07-04T13:57:17.331Z,24
2018-07-04T13:58:22.496Z,24.1
2018-07-04T13:59:28.123Z,24.1
2018-07-04T14:00:33.687Z,24.1
2018-07-04T14:01:38.857Z,24.1
2018-07-04T14:02:43.496Z,24.1
2018-07-04T14:03:50.442Z,24.1
2018-07-04T14:04:56.851Z,24.1
2018-07-04T14:06:02.046Z,24.1
2018-07-04T14:07:07.036Z,24.1
2018-07-04T14:08:12.503Z,24.2
2018-07-04T14:09:17.698Z,24.2
2018-07-04T14:10:22.857Z,24.2
2018-07-04T14:11:28.039Z,24.2
2018-07-04T14:12:33.732Z,24.2
2018-07-04T14:13:38.887Z,24.3
2018-07-04T14:14:44.055Z,24.3
2018-07-04T14:15:49.483Z,24.3
2018-07-04T14:16:54.646Z,24.3
2018-07-04T14:17:59.802Z,24.3
2018-07-04T14:19:04.940Z,24.3
2018-07-04T14:20:09.831Z,24.3
2018-07-04T14:21:14.433Z,24.3
2018-07-04T14:22:19.426Z,24.4
2018-07-04T14:23:24.322Z,24.4
2018-07-04T14:24:29.479Z,24.4
2018-07-04T14:25:34.652Z,24.4
2018-07-04T14:26:40.072Z,24.4
2018-07-04T14:27:45.429Z,24.4
2018-07-04T14:28:50.870Z,24.4
2018-07-04T14:29:56.313Z,24.4
2018-07-04T14:31:02.116Z,24.4
2018-07-04T14:32:07.010Z,24.4
2018-07-04T14:33:11.884Z,24.4
2018-07-04T14:34:17.677Z,24.4
2018-07-04T14:35:23.127Z,24.4
2018-07-04T14:36:28.565Z,24.4
2018-07-04T14:37:33.733Z,24.4